Marco Island, FL

2:13 AM EST on December 22, 2014 (GMT -0500)
KFLMARCO2 | Change Station
CLOSE
Current Station
Personal Weather Station
Location: Marco Island, FL
Elevation: 10 ft
Nearby Weather Stations

Elev 10 ft 25.93 °N, 81.71 °W | Updated 14 minutes ago

Mostly Cloudy
Mostly Cloudy
70.4 °F
Feels Like 70.4 °F
N
0.0
Wind Variable Wind from SE

Today
High -- | Low -- °F
--% Chance of Precip.
Yesterday
High -- | Low -- °F
Precip. -- in
7:09 AM 5:41 PM
New Moon, 0% visible
Pressure 30.02 in
Visibility 10.0 miles
Clouds Overcast 11000 ft
Dew Point Not available.
Humidity Not available.
Rainfall 0.01 in
Snow Depth Not available.
UV 0.0 out of 12
Pollen 3.80 out of 12
Air Quality Not available.
Flu Activity Not available.
METAR KMKY 220655Z AUTO 10003KT 10SM OVC110 20/18 A3002 RMK AO1

More Conditions Fewer Conditions

Pressure 30.02 in
Visibility 10.0 miles
Clouds Overcast 11000 ft
Dew Point Not available.
Humidity Not available.
Rainfall 0.01 in
Snow Depth Not available.
UV 0.0 out of 12
Pollen 3.80 out of 12
Air Quality Not available.
Flu Activity Not available.
METAR KMKY 220655Z AUTO 10003KT 10SM OVC110 20/18 A3002 RMK AO1

More Conditions Fewer Conditions

10-Day Weather Forecast

Almanac

Astronomy

Dec. 22, 2014 Rise Set
Actual Time
Civil Twilight
Nautical Twilight
Astronomical Twilight
Moon
Length of Visible Light
Length of Day
Tomorrow will be .
, % of the Moon is Illuminated

Today's Extremes

State Highs State Lows

Community

WunderPhotos

Upload Photos

1,779,560 photos uploaded!

WunderBlogs® & News

Nearby

Air Quality

  Air Quality AQ Index Pollutant
Not available.

Snow Depth

Station Depth Elevation

Earthquake Activity

City Distance Mag. Time & Date
Minimum magnitude displayed is 2.5.

Coastal Water Temperatures

Place Temperature

Nearby Weather Stations